Marathon Ts — 9HA4464 — position and weather

sailwx.info

Track history (hours):
 
Tides and Currents Weather Stations Pressure Air Temp Water Temp Dewpoint Dewpoint Depression Visibility Wind Speed Wind Dir Waves Ship Positions

Marathon Ts

Last reported at 2017-Oct-17 07:00 UTC. Time now 2017-Dec-11 11:16 UTC.
Position N 26°25' W 079°28'.
Warning: this ship's position is 55 days out of date.

Length 250 m; draft 13.1 m.

Type: Ship. MMSI: 249987000.

Date/timePositionNaut miles runAvg speedWind from/ knotsBaromVisibWave heightAir tempDewpointWater temp
2017-Oct-17 07:00N 26°25' W 079°28'714.3
2017-Oct-17 06:29N 26°18' W 079°27'713.9
2017-Oct-17 06:00N 26°11' W 079°26'713.8
2017-Oct-17 05:30N 26°04' W 079°28'714.1
2017-Oct-17 04:59N 25°58' W 079°31'714.6
2017-Oct-17 04:30N 25°51' W 079°32'714.5
2017-Oct-17 04:00N 25°44' W 079°33'714.4
2017-Oct-17 03:30N 25°36' W 079°34'714.1
2017-Oct-17 03:00N 25°29' W 079°35'  
Track history (hours):
 
Tides and Currents Weather Stations Pressure Air Temp Water Temp Dewpoint Dewpoint Depression Visibility Wind Speed Wind Dir Waves Ship Positions

Marathon Ts

Last reported at 2017-Oct-17 07:00 UTC. Time now 2017-Dec-11 11:16 UTC.
Position N 26°25' W 079°28'.
Warning: this ship's position is 55 days out of date.

Length 250 m; draft 13.1 m.

Type: Ship. MMSI: 249987000.

Date/timePositionNaut miles runAvg speedWind from/ knotsBaromVisibWave heightAir tempDewpointWater temp
2017-Oct-17 07:00N 26°25' W 079°28'714.3
2017-Oct-17 06:29N 26°18' W 079°27'713.9
2017-Oct-17 06:00N 26°11' W 079°26'713.8
2017-Oct-17 05:30N 26°04' W 079°28'714.1
2017-Oct-17 04:59N 25°58' W 079°31'714.6
2017-Oct-17 04:30N 25°51' W 079°32'714.5
2017-Oct-17 04:00N 25°44' W 079°33'714.4
2017-Oct-17 03:30N 25°36' W 079°34'714.1
2017-Oct-17 03:00N 25°29' W 079°35'  

Dump ship's entire track history